createdAt,value
2018-03-19T00:01:26.346Z,10.45
2018-03-19T00:03:54.586Z,15.85
2018-03-19T00:06:22.661Z,10.70
2018-03-19T00:08:50.947Z,11.48
2018-03-19T00:11:19.178Z,13.25
2018-03-19T00:13:47.185Z,9.35
2018-03-19T00:16:15.354Z,9.13
2018-03-19T00:18:43.797Z,10.27
2018-03-19T00:21:12.045Z,10.70
2018-03-19T00:23:40.501Z,9.50
2018-03-19T00:26:08.836Z,10.93
2018-03-19T00:28:37.259Z,9.20
2018-03-19T00:31:05.450Z,11.60
2018-03-19T00:33:33.653Z,12.52
2018-03-19T00:36:01.715Z,13.62
2018-03-19T00:38:29.917Z,12.07
2018-03-19T00:40:58.966Z,11.20
2018-03-19T00:43:27.690Z,11.70
2018-03-19T00:45:55.880Z,12.35
2018-03-19T00:48:24.384Z,6.03
2018-03-19T00:50:52.786Z,9.65
2018-03-19T00:53:21.252Z,15.82
2018-03-19T00:55:49.483Z,8.73
2018-03-19T00:58:17.667Z,12.02
2018-03-19T01:00:45.770Z,10.13
2018-03-19T01:03:13.938Z,11.70
2018-03-19T01:05:41.953Z,16.33
2018-03-19T01:08:10.097Z,10.60
2018-03-19T01:10:38.109Z,12.25
2018-03-19T01:13:06.219Z,12.82
2018-03-19T01:15:34.263Z,17.02
2018-03-19T01:18:02.519Z,17.42
2018-03-19T01:20:30.553Z,13.70
2018-03-19T01:22:58.686Z,19.12
2018-03-19T01:25:26.874Z,12.77
2018-03-19T01:27:55.060Z,12.75
2018-03-19T01:30:23.272Z,11.55
2018-03-19T01:32:51.414Z,16.02
2018-03-19T01:35:19.544Z,15.60
2018-03-19T01:37:47.704Z,11.00
2018-03-19T01:40:15.979Z,15.20
2018-03-19T01:42:44.029Z,12.57
2018-03-19T01:45:12.220Z,13.32
2018-03-19T01:47:40.259Z,14.10
2018-03-19T01:50:08.431Z,11.95
2018-03-19T01:52:36.436Z,11.25
2018-03-19T01:55:04.929Z,10.55
2018-03-19T01:57:33.214Z,10.88
2018-03-19T02:00:01.892Z,11.00
2018-03-19T02:02:30.173Z,11.65
2018-03-19T02:04:59.329Z,13.48
2018-03-19T02:07:27.421Z,12.48
2018-03-19T02:09:55.696Z,12.10
2018-03-19T02:12:23.989Z,10.93
2018-03-19T02:14:52.194Z,10.98
2018-03-19T02:17:20.204Z,9.90
2018-03-19T02:19:48.399Z,15.35
2018-03-19T02:22:16.572Z,13.52
2018-03-19T02:24:44.869Z,14.68
2018-03-19T02:27:12.857Z,13.35
2018-03-19T02:29:41.022Z,13.27
2018-03-19T02:32:09.369Z,10.55
2018-03-19T02:34:37.656Z,10.93
2018-03-19T02:37:05.707Z,10.35
2018-03-19T02:39:34.046Z,11.90
2018-03-19T02:42:02.370Z,12.48
2018-03-19T02:44:30.647Z,12.10
2018-03-19T02:46:58.867Z,12.57
2018-03-19T02:49:27.224Z,13.93
2018-03-19T02:51:55.750Z,13.40
2018-03-19T02:54:24.037Z,13.82
2018-03-19T02:56:52.535Z,14.27
2018-03-19T02:59:20.807Z,9.07
2018-03-19T03:01:48.849Z,12.40
2018-03-19T03:04:17.043Z,12.98
2018-03-19T03:06:45.155Z,12.25
2018-03-19T03:09:13.475Z,14.48
2018-03-19T03:11:41.588Z,11.85
2018-03-19T03:14:09.830Z,12.27
2018-03-19T03:16:37.838Z,13.40
2018-03-19T03:19:06.290Z,14.95
2018-03-19T03:21:34.359Z,16.02
2018-03-19T03:24:02.646Z,13.15
2018-03-19T03:26:30.700Z,10.35
2018-03-19T03:28:59.042Z,16.08
2018-03-19T03:31:27.249Z,13.18
2018-03-19T03:33:55.463Z,13.23
2018-03-19T03:36:23.590Z,12.52
2018-03-19T03:38:51.765Z,15.32
2018-03-19T03:41:19.938Z,14.38
2018-03-19T03:43:48.221Z,13.60
2018-03-19T03:46:16.356Z,10.77
2018-03-19T03:48:44.378Z,12.68
2018-03-19T03:51:12.541Z,12.45
2018-03-19T03:53:40.535Z,11.52
2018-03-19T03:56:08.595Z,18.83
2018-03-19T03:58:36.661Z,15.95
2018-03-19T04:01:04.952Z,14.87
2018-03-19T04:03:33.167Z,16.17
2018-03-19T04:06:01.516Z,11.60
2018-03-19T04:08:29.856Z,11.12
2018-03-19T04:10:58.154Z,13.88
2018-03-19T04:13:26.240Z,15.27
2018-03-19T04:15:54.442Z,14.45
2018-03-19T04:18:22.504Z,13.68
2018-03-19T04:20:50.694Z,14.32
2018-03-19T04:23:18.771Z,15.57
2018-03-19T04:25:47.219Z,13.73
2018-03-19T04:28:15.276Z,14.73
2018-03-19T04:30:43.476Z,11.63
2018-03-19T04:33:11.461Z,12.00
2018-03-19T04:35:39.709Z,13.32
2018-03-19T04:38:07.777Z,14.63
2018-03-19T04:40:36.062Z,11.93
2018-03-19T04:43:04.198Z,15.63
2018-03-19T04:45:32.619Z,11.70
2018-03-19T04:48:00.979Z,10.02
2018-03-19T04:50:29.247Z,14.25
2018-03-19T04:52:57.563Z,15.63
2018-03-19T04:55:25.776Z,12.43
2018-03-19T04:57:53.777Z,12.45
2018-03-19T05:00:21.820Z,11.98
2018-03-19T05:02:49.801Z,10.77
2018-03-19T05:05:18.026Z,13.07
2018-03-19T05:07:46.076Z,11.73
2018-03-19T05:10:17.125Z,10.52
2018-03-19T05:12:45.122Z,14.65
2018-03-19T05:15:13.568Z,11.70
2018-03-19T05:17:41.620Z,13.77
2018-03-19T05:20:09.856Z,10.88
2018-03-19T05:22:38.045Z,10.55
2018-03-19T05:25:06.294Z,7.72
2018-03-19T05:27:34.735Z,13.85
2018-03-19T05:30:03.040Z,9.02
2018-03-19T05:32:31.221Z,11.70
2018-03-19T05:34:59.629Z,12.98
2018-03-19T05:37:27.715Z,14.35
2018-03-19T05:39:56.080Z,16.95
2018-03-19T05:42:24.125Z,14.48
2018-03-19T05:44:52.255Z,11.88
2018-03-19T05:47:20.541Z,10.88
2018-03-19T05:49:49.003Z,17.98
2018-03-19T05:52:17.186Z,19.67
2018-03-19T05:54:45.500Z,14.35
2018-03-19T05:57:13.798Z,17.87
2018-03-19T05:59:41.978Z,17.00
2018-03-19T06:02:10.399Z,21.62
2018-03-19T06:04:38.984Z,16.25
2018-03-19T06:07:07.381Z,16.55
2018-03-19T06:09:35.774Z,17.58
2018-03-19T06:12:04.172Z,16.65
2018-03-19T06:14:32.475Z,15.38
2018-03-19T06:17:01.690Z,17.17
2018-03-19T06:19:29.889Z,21.45
2018-03-19T06:21:58.210Z,18.73
2018-03-19T06:24:26.194Z,19.27
2018-03-19T06:26:54.472Z,20.42
2018-03-19T06:29:22.454Z,19.98
2018-03-19T06:31:51.120Z,16.80
2018-03-19T06:34:19.254Z,13.98
2018-03-19T06:36:47.379Z,12.73
2018-03-19T06:39:15.351Z,15.70
2018-03-19T06:41:43.536Z,14.75
2018-03-19T06:44:11.627Z,13.82
2018-03-19T06:46:40.022Z,18.00
2018-03-19T06:49:08.325Z,18.08
2018-03-19T06:51:36.602Z,15.98
2018-03-19T06:54:04.960Z,14.77
2018-03-19T06:56:33.159Z,16.95
2018-03-19T06:59:01.238Z,16.70
2018-03-19T07:01:29.321Z,14.23
2018-03-19T07:03:57.371Z,16.70
2018-03-19T07:06:25.464Z,16.48
2018-03-19T07:08:53.623Z,14.07
2018-03-19T07:11:21.901Z,13.20
2018-03-19T07:13:49.973Z,16.95
2018-03-19T07:16:18.131Z,14.15
2018-03-19T07:18:46.242Z,15.55
2018-03-19T07:21:14.317Z,12.85
2018-03-19T07:23:42.522Z,17.08
2018-03-19T07:26:10.843Z,15.35
2018-03-19T07:28:39.204Z,16.42
2018-03-19T07:31:07.380Z,16.23
2018-03-19T07:33:35.512Z,19.05
2018-03-19T07:36:03.724Z,12.98
2018-03-19T07:38:31.743Z,18.70
2018-03-19T07:40:59.865Z,14.38
2018-03-19T07:43:28.142Z,15.85
2018-03-19T07:45:56.176Z,15.23
2018-03-19T07:48:24.236Z,14.52
2018-03-19T07:50:52.364Z,17.23
2018-03-19T07:53:20.345Z,19.08
2018-03-19T07:55:48.456Z,15.48
2018-03-19T07:58:16.403Z,17.15
2018-03-19T08:00:44.696Z,16.10
2018-03-19T08:03:12.875Z,19.60
2018-03-19T08:05:41.036Z,11.77
2018-03-19T08:08:09.263Z,13.25
2018-03-19T08:10:37.224Z,18.50
2018-03-19T08:13:05.509Z,14.87
2018-03-19T08:15:33.437Z,10.05
2018-03-19T08:18:01.498Z,15.40
2018-03-19T08:20:29.486Z,12.10
2018-03-19T08:22:57.556Z,13.25
2018-03-19T08:25:25.567Z,19.87
2018-03-19T08:27:53.660Z,15.15
2018-03-19T08:30:21.637Z,13.82
2018-03-19T08:32:49.694Z,11.75
2018-03-19T08:35:17.667Z,15.38
2018-03-19T08:37:45.816Z,12.93
2018-03-19T08:40:13.922Z,14.60
2018-03-19T08:42:42.046Z,13.15
2018-03-19T08:45:10.055Z,9.40
2018-03-19T08:47:38.237Z,11.30
2018-03-19T08:50:06.319Z,11.68
2018-03-19T08:52:34.372Z,15.45
2018-03-19T08:55:02.299Z,13.32
2018-03-19T08:57:30.434Z,10.55
2018-03-19T08:59:58.437Z,14.68
2018-03-19T09:02:26.521Z,11.43
2018-03-19T09:04:54.528Z,11.07
2018-03-19T09:07:22.622Z,13.02
2018-03-19T09:09:50.564Z,13.05
2018-03-19T09:12:18.715Z,10.02
2018-03-19T09:14:46.745Z,10.93
2018-03-19T09:17:14.921Z,11.05
2018-03-19T09:19:43.172Z,9.63
2018-03-19T09:22:11.347Z,9.60
2018-03-19T09:24:39.504Z,8.38
2018-03-19T09:27:08.458Z,7.40
2018-03-19T09:29:36.462Z,8.13
2018-03-19T09:32:04.542Z,8.82
2018-03-19T09:34:32.465Z,12.35
2018-03-19T09:37:00.578Z,10.68
2018-03-19T09:39:28.534Z,9.95
2018-03-19T09:41:56.704Z,10.30
2018-03-19T09:44:24.763Z,11.85
2018-03-19T09:46:52.861Z,11.32
2018-03-19T09:49:20.881Z,8.98
2018-03-19T09:51:49.072Z,10.45
2018-03-19T09:54:17.247Z,7.10
2018-03-19T09:56:45.506Z,12.35
2018-03-19T09:59:13.482Z,8.50
2018-03-19T10:01:41.739Z,11.75
2018-03-19T10:04:09.799Z,8.30
2018-03-19T10:06:38.016Z,11.25
2018-03-19T10:09:06.065Z,11.10
2018-03-19T10:11:34.100Z,15.05
2018-03-19T10:14:02.119Z,9.88
2018-03-19T10:16:30.120Z,10.57
2018-03-19T10:18:58.119Z,10.00
2018-03-19T10:21:26.100Z,10.98
2018-03-19T10:23:54.139Z,8.50
2018-03-19T10:26:22.114Z,11.93
2018-03-19T10:28:50.227Z,10.52
2018-03-19T10:31:18.398Z,11.45
2018-03-19T10:33:46.500Z,14.65
2018-03-19T10:36:14.541Z,11.90
2018-03-19T10:38:42.699Z,6.90
2018-03-19T10:41:10.832Z,11.20
2018-03-19T10:43:39.153Z,9.63
2018-03-19T10:46:07.143Z,12.50
2018-03-19T10:48:35.144Z,8.65
2018-03-19T10:51:03.143Z,8.65
2018-03-19T10:53:31.238Z,8.68
2018-03-19T10:55:59.187Z,7.93
2018-03-19T10:58:27.224Z,13.13
2018-03-19T11:00:55.194Z,9.77
2018-03-19T11:03:23.221Z,12.27
2018-03-19T11:05:51.130Z,11.20
2018-03-19T11:08:19.406Z,13.65
2018-03-19T11:10:47.425Z,11.15
2018-03-19T11:13:15.566Z,10.30
2018-03-19T11:15:43.768Z,9.87
2018-03-19T11:18:11.997Z,12.73
2018-03-19T11:20:40.157Z,11.57
2018-03-19T11:23:08.289Z,11.48
2018-03-19T11:25:36.255Z,8.32
2018-03-19T11:28:04.341Z,10.48
2018-03-19T11:30:32.327Z,9.90
2018-03-19T11:33:00.454Z,7.82
2018-03-19T11:35:28.446Z,11.12
2018-03-19T11:37:56.472Z,13.70
2018-03-19T11:40:24.498Z,21.62
2018-03-19T11:42:52.537Z,8.50
2018-03-19T11:45:20.510Z,9.73
2018-03-19T11:47:48.591Z,8.10
2018-03-19T11:50:16.638Z,8.50
2018-03-19T11:52:44.718Z,8.65
2018-03-19T11:55:12.840Z,10.80
2018-03-19T11:57:40.999Z,11.68
2018-03-19T12:00:08.997Z,11.70
2018-03-19T12:02:37.119Z,10.88
2018-03-19T12:05:05.194Z,14.40
2018-03-19T12:07:33.314Z,9.95
2018-03-19T12:10:01.330Z,9.65
2018-03-19T12:12:29.476Z,11.20
2018-03-19T12:14:57.575Z,10.77
2018-03-19T12:17:25.764Z,17.12
2018-03-19T12:19:53.726Z,13.77
2018-03-19T12:22:21.790Z,13.32
2018-03-19T12:24:49.823Z,12.95
2018-03-19T12:27:17.880Z,10.40
2018-03-19T12:29:46.036Z,11.57
2018-03-19T12:32:14.082Z,11.40
2018-03-19T12:34:42.268Z,10.05
2018-03-19T12:37:10.237Z,12.32
2018-03-19T12:39:38.340Z,12.10
2018-03-19T12:42:06.339Z,12.88
2018-03-19T12:44:34.362Z,8.30
2018-03-19T12:47:02.296Z,11.00
2018-03-19T12:49:30.355Z,11.02
2018-03-19T12:51:58.308Z,12.70
2018-03-19T12:54:26.370Z,13.80
2018-03-19T12:56:54.290Z,13.68
2018-03-19T12:59:22.471Z,10.18
2018-03-19T13:01:50.398Z,11.18
2018-03-19T13:04:18.547Z,10.25
2018-03-19T13:06:47.543Z,15.30
2018-03-19T13:09:15.677Z,12.13
2018-03-19T13:11:43.596Z,11.77
2018-03-19T13:14:11.561Z,14.15
2018-03-19T13:16:39.495Z,11.12
2018-03-19T13:19:07.515Z,13.32
2018-03-19T13:21:35.495Z,17.05
2018-03-19T13:24:03.456Z,12.80
2018-03-19T13:26:31.416Z,13.57
2018-03-19T13:28:59.395Z,14.45
2018-03-19T13:31:27.415Z,12.35
2018-03-19T13:33:55.395Z,11.88
2018-03-19T13:36:23.356Z,14.85
2018-03-19T13:38:51.336Z,13.80
2018-03-19T13:41:19.340Z,11.30
2018-03-19T13:43:47.341Z,15.80
2018-03-19T13:46:15.355Z,13.00
2018-03-19T13:48:43.354Z,13.30
2018-03-19T13:51:11.424Z,13.55
2018-03-19T13:53:39.452Z,11.65
2018-03-19T13:56:07.460Z,14.48
2018-03-19T13:58:35.461Z,9.75
2018-03-19T14:01:03.620Z,14.68
2018-03-19T14:03:31.721Z,9.98
2018-03-19T14:05:59.752Z,10.18
2018-03-19T14:08:27.811Z,9.57
2018-03-19T14:10:55.847Z,8.52
2018-03-19T14:13:24.006Z,10.15
2018-03-19T14:15:52.215Z,9.00
2018-03-19T14:18:20.474Z,9.80
2018-03-19T14:20:48.567Z,12.82
2018-03-19T14:23:16.874Z,10.48
2018-03-19T14:25:44.890Z,6.53
2018-03-19T14:28:13.312Z,8.52
2018-03-19T14:30:41.555Z,8.95
2018-03-19T14:33:09.742Z,8.85
2018-03-19T14:35:38.425Z,8.50
2018-03-19T14:38:06.584Z,10.98
2018-03-19T14:40:34.837Z,9.02
2018-03-19T14:43:02.910Z,10.98
2018-03-19T14:45:31.237Z,14.48
2018-03-19T14:47:59.338Z,9.07
2018-03-19T14:50:27.749Z,8.73
2018-03-19T14:52:55.749Z,11.50
2018-03-19T14:55:23.872Z,12.07
2018-03-19T14:57:51.810Z,9.95
2018-03-19T15:00:19.966Z,11.75
2018-03-19T15:02:48.224Z,10.27
2018-03-19T15:05:16.216Z,12.10
2018-03-19T15:07:44.218Z,12.10
2018-03-19T15:10:12.289Z,10.52
2018-03-19T15:12:40.317Z,12.57
2018-03-19T15:15:08.372Z,13.10
2018-03-19T15:17:36.566Z,11.48
2018-03-19T15:20:04.617Z,12.95
2018-03-19T15:22:32.606Z,12.75
2018-03-19T15:25:00.669Z,17.67
2018-03-19T15:27:28.769Z,13.35
2018-03-19T15:29:56.974Z,11.07
2018-03-19T15:32:25.180Z,13.13
2018-03-19T15:34:53.477Z,9.70
2018-03-19T15:37:21.636Z,11.05
2018-03-19T15:39:49.829Z,11.12
2018-03-19T15:42:18.092Z,12.93
2018-03-19T15:44:46.087Z,12.80
2018-03-19T15:47:14.145Z,12.98
2018-03-19T15:49:42.134Z,13.50
2018-03-19T15:52:10.158Z,14.25
2018-03-19T15:54:38.224Z,12.18
2018-03-19T15:57:06.410Z,14.87
2018-03-19T15:59:34.498Z,13.50
2018-03-19T16:02:02.536Z,17.37
2018-03-19T16:04:30.537Z,12.13
2018-03-19T16:06:58.516Z,17.67
2018-03-19T16:09:26.737Z,16.55
2018-03-19T16:11:54.926Z,14.40
2018-03-19T16:14:22.871Z,13.65
2018-03-19T16:16:52.578Z,14.87
2018-03-19T16:19:20.709Z,12.77
2018-03-19T16:21:48.751Z,15.20
2018-03-19T16:24:16.793Z,17.37
2018-03-19T16:26:44.763Z,16.95
2018-03-19T16:29:12.800Z,14.25
2018-03-19T16:31:40.767Z,19.77
2018-03-19T16:34:09.042Z,17.08
2018-03-19T16:36:37.049Z,17.02
2018-03-19T16:39:05.039Z,20.67
2018-03-19T16:41:33.002Z,16.40
2018-03-19T16:44:01.129Z,16.08
2018-03-19T16:46:29.301Z,13.50
2018-03-19T16:48:57.542Z,18.52
2018-03-19T16:51:25.732Z,16.27
2018-03-19T16:53:53.931Z,13.77
2018-03-19T16:56:22.109Z,19.60
2018-03-19T16:58:50.071Z,16.80
2018-03-19T17:01:18.103Z,15.18
2018-03-19T17:03:46.072Z,13.85
2018-03-19T17:06:14.170Z,14.80
2018-03-19T17:08:42.233Z,16.98
2018-03-19T17:11:11.086Z,13.88
2018-03-19T17:13:38.972Z,15.13
2018-03-19T17:16:07.026Z,16.98
2018-03-19T17:18:34.977Z,18.80
2018-03-19T17:21:03.045Z,15.35
2018-03-19T17:23:31.090Z,17.92
2018-03-19T17:25:59.131Z,16.08
2018-03-19T17:28:27.051Z,15.75
2018-03-19T17:30:55.105Z,16.75
2018-03-19T17:33:23.078Z,14.38
2018-03-19T17:35:51.237Z,16.10
2018-03-19T17:38:19.264Z,15.68
2018-03-19T17:40:47.355Z,15.68
2018-03-19T17:43:15.514Z,15.40
2018-03-19T17:45:43.795Z,20.50
2018-03-19T17:48:11.836Z,16.65
2018-03-19T17:50:39.976Z,14.65
2018-03-19T17:53:08.035Z,15.55
2018-03-19T17:55:36.155Z,17.35
2018-03-19T17:58:04.355Z,16.45
2018-03-19T18:00:32.638Z,16.70
2018-03-19T18:03:00.724Z,16.50
2018-03-19T18:05:28.948Z,18.33
2018-03-19T18:07:57.143Z,20.02
2018-03-19T18:10:25.341Z,20.60
2018-03-19T18:12:53.436Z,16.83
2018-03-19T18:15:21.515Z,13.98
2018-03-19T18:17:49.614Z,14.65
2018-03-19T18:20:17.912Z,17.65
2018-03-19T18:22:46.005Z,14.45
2018-03-19T18:25:14.184Z,17.85
2018-03-19T18:27:42.285Z,15.15
2018-03-19T18:30:10.490Z,16.60
2018-03-19T18:32:39.807Z,16.70
2018-03-19T18:35:07.999Z,19.37
2018-03-19T18:37:36.078Z,16.17
2018-03-19T18:40:04.492Z,16.98
2018-03-19T18:42:32.672Z,17.62
2018-03-19T18:45:01.836Z,17.62
2018-03-19T18:47:29.994Z,16.30
2018-03-19T18:49:58.075Z,15.35
2018-03-19T18:52:26.303Z,15.85
2018-03-19T18:54:54.304Z,17.35
2018-03-19T18:57:22.563Z,14.65
2018-03-19T18:59:50.742Z,19.95
2018-03-19T19:02:19.061Z,13.95
2018-03-19T19:04:47.242Z,19.87
2018-03-19T19:07:15.639Z,20.25
2018-03-19T19:09:48.247Z,14.82
2018-03-19T19:12:17.137Z,16.95
2018-03-19T19:14:45.237Z,16.40
2018-03-19T19:17:13.337Z,15.23
2018-03-19T19:19:41.517Z,18.52
2018-03-19T19:22:09.858Z,17.05
2018-03-19T19:24:38.037Z,14.38
2018-03-19T19:27:06.136Z,17.83
2018-03-19T19:29:34.296Z,15.20
2018-03-19T19:32:02.596Z,15.50
2018-03-19T19:34:31.817Z,16.95
2018-03-19T19:37:00.008Z,16.67
2018-03-19T19:39:28.107Z,15.20
2018-03-19T19:41:56.529Z,17.92
2018-03-19T19:44:24.618Z,16.23
2018-03-19T19:46:52.897Z,17.33
2018-03-19T19:49:21.097Z,16.12
2018-03-19T19:51:49.276Z,18.00
2018-03-19T19:54:17.400Z,18.23
2018-03-19T19:56:45.643Z,16.17
2018-03-19T19:59:14.721Z,16.05
2018-03-19T20:01:43.076Z,16.20
2018-03-19T20:04:11.081Z,16.95
2018-03-19T20:06:39.157Z,16.98
2018-03-19T20:09:08.286Z,14.75
2018-03-19T20:11:36.397Z,19.20
2018-03-19T20:14:04.758Z,15.20
2018-03-19T20:16:32.958Z,17.15
2018-03-19T20:19:01.159Z,16.05
2018-03-19T20:21:29.419Z,13.40
2018-03-19T20:23:58.196Z,17.48
2018-03-19T20:26:26.494Z,17.40
2018-03-19T20:28:54.707Z,15.07
2018-03-19T20:31:22.987Z,18.02
2018-03-19T20:33:51.049Z,20.98
2018-03-19T20:36:19.317Z,16.23
2018-03-19T20:38:47.526Z,15.32
2018-03-19T20:41:15.727Z,18.35
2018-03-19T20:43:43.807Z,17.87
2018-03-19T20:46:13.656Z,18.25
2018-03-19T20:48:44.550Z,17.48
2018-03-19T20:51:17.707Z,18.15
2018-03-19T20:53:46.514Z,15.60
2018-03-19T20:56:14.646Z,17.60
2018-03-19T20:58:43.007Z,19.10
2018-03-19T21:01:12.731Z,15.35
2018-03-19T21:03:41.448Z,19.42
2018-03-19T21:06:09.615Z,17.85
2018-03-19T21:08:37.727Z,17.17
2018-03-19T21:11:05.928Z,17.95
2018-03-19T21:13:34.106Z,18.33
2018-03-19T21:16:02.308Z,17.80
2018-03-19T21:18:30.406Z,18.62
2018-03-19T21:20:58.486Z,26.62
2018-03-19T21:23:26.687Z,16.70
2018-03-19T21:25:54.958Z,17.60
2018-03-19T21:28:23.178Z,18.45
2018-03-19T21:30:52.386Z,18.20
2018-03-19T21:33:20.639Z,15.52
2018-03-19T21:35:48.883Z,20.55
2018-03-19T21:38:17.180Z,18.45
2018-03-19T21:40:45.472Z,14.75
2018-03-19T21:43:13.613Z,19.02
2018-03-19T21:45:41.662Z,18.20
2018-03-19T21:48:09.965Z,17.42
2018-03-19T21:50:38.245Z,16.85
2018-03-19T21:53:06.517Z,15.27
2018-03-19T21:55:35.000Z,16.48
2018-03-19T21:58:03.527Z,16.45
2018-03-19T22:00:31.688Z,19.25
2018-03-19T22:03:00.042Z,15.45
2018-03-19T22:05:28.841Z,17.20
2018-03-19T22:07:57.077Z,21.83
2018-03-19T22:10:25.338Z,18.55
2018-03-19T22:12:53.444Z,18.23
2018-03-19T22:15:22.415Z,18.23
2018-03-19T22:17:50.643Z,19.12
2018-03-19T22:20:18.780Z,20.33
2018-03-19T22:22:47.042Z,19.45
2018-03-19T22:25:15.260Z,20.70
2018-03-19T22:27:43.639Z,20.67
2018-03-19T22:30:12.024Z,15.98
2018-03-19T22:32:40.317Z,18.83
2018-03-19T22:35:08.629Z,19.15
2018-03-19T22:37:36.857Z,23.87
2018-03-19T22:40:05.118Z,19.95
2018-03-19T22:42:33.510Z,21.17
2018-03-19T22:45:01.800Z,25.17
2018-03-19T22:47:30.002Z,20.35
2018-03-19T22:49:58.122Z,20.85
2018-03-19T22:52:26.536Z,22.25
2018-03-19T22:54:54.796Z,21.35
2018-03-19T22:57:22.988Z,20.48
2018-03-19T22:59:51.282Z,21.20
2018-03-19T23:02:19.464Z,25.40
2018-03-19T23:04:47.576Z,26.27
2018-03-19T23:07:15.858Z,22.85
2018-03-19T23:09:44.055Z,25.83
2018-03-19T23:12:13.361Z,26.70
2018-03-19T23:14:41.889Z,25.33
2018-03-19T23:17:10.206Z,25.40
2018-03-19T23:19:38.378Z,23.15
2018-03-19T23:22:06.664Z,22.45
2018-03-19T23:24:34.947Z,25.70
2018-03-19T23:27:03.065Z,24.30
2018-03-19T23:29:31.407Z,27.87
2018-03-19T23:31:59.765Z,30.75
2018-03-19T23:34:28.045Z,25.02
2018-03-19T23:36:56.240Z,28.25
2018-03-19T23:39:24.546Z,26.98
2018-03-19T23:41:52.725Z,27.95
2018-03-19T23:44:20.783Z,24.98
2018-03-19T23:46:48.863Z,23.67
2018-03-19T23:49:17.016Z,28.25
2018-03-19T23:51:45.302Z,27.52
2018-03-19T23:54:13.599Z,24.37
2018-03-19T23:56:41.900Z,24.70
2018-03-19T23:59:10.087Z,29.80
